Time;durP1;ratioP1;P1;durP2;ratioP2;P2;SDS_P1;SDS_P2;PMS_P1;PMS_P2;Temp;Humidity;BMP_temperature;BMP_pressure;BME280_temperature;BME280_humidity;BME280_pressure;Samples;Min_cycle;Max_cycle;Signal;HPM_P1;HPM_P2
2023/01/09 00:00:23;;;;;;;1.90;1.77;;;14.80;94.10;;;;;;5073943;28;20742;-62
2023/01/09 00:03:11;;;;;;;2.40;2.20;;;14.80;94.00;;;;;;5073675;28;20715;-61
2023/01/09 00:06:00;;;;;;;2.10;1.90;;;14.80;93.90;;;;;;5074385;28;20217;-62
2023/01/09 00:08:49;;;;;;;2.25;2.05;;;14.80;94.00;;;;;;5074503;28;20247;-62
2023/01/09 00:11:38;;;;;;;4.00;2.20;;;14.80;93.90;;;;;;5074696;28;20201;-62
2023/01/09 00:14:26;;;;;;;2.50;2.00;;;14.80;94.00;;;;;;5074606;28;20224;-62
2023/01/09 00:17:14;;;;;;;2.30;2.10;;;14.80;93.90;;;;;;5074285;28;20684;-61
2023/01/09 00:20:02;;;;;;;2.03;1.83;;;14.80;93.90;;;;;;5073744;28;20228;-62
2023/01/09 00:22:50;;;;;;;2.10;2.00;;;14.80;93.80;;;;;;5073802;28;20311;-62
2023/01/09 00:25:39;;;;;;;1.90;1.80;;;14.70;93.50;;;;;;5074399;28;20732;-62
2023/01/09 00:28:29;;;;;;;2.20;2.07;;;14.80;94.00;;;;;;5074149;28;20197;-62
2023/01/09 00:31:18;;;;;;;2.00;1.83;;;14.80;93.90;;;;;;5074321;28;20212;-62
2023/01/09 00:34:09;;;;;;;2.22;2.03;;;14.80;94.00;;;;;;5074015;28;20257;-62
2023/01/09 00:36:57;;;;;;;2.13;1.90;;;14.80;93.90;;;;;;5074022;28;20203;-62
2023/01/09 00:39:45;;;;;;;2.20;1.87;;;14.80;94.10;;;;;;5073182;28;20204;-62
2023/01/09 00:42:36;;;;;;;2.50;2.00;;;14.80;94.30;;;;;;5074324;28;20277;-62
2023/01/09 00:45:27;;;;;;;2.33;2.13;;;14.80;93.80;;;;;;5095357;22;20743;-66
2023/01/09 00:48:25;;;;;;;2.67;2.00;;;14.80;94.00;;;;;;5073577;28;20193;-66
2023/01/09 00:51:13;;;;;;;2.08;1.90;;;14.80;93.80;;;;;;5072646;28;20236;-66
2023/01/09 00:54:03;;;;;;;2.00;1.90;;;14.70;99.90;;;;;;5073297;28;20200;-64
2023/01/09 00:56:51;;;;;;;2.20;2.10;;;14.80;94.00;;;;;;5085568;28;20271;-63
2023/01/09 00:59:41;;;;;;;1.90;1.80;;;14.70;93.90;;;;;;5093248;28;20261;-66
2023/01/09 01:02:29;;;;;;;2.30;2.10;;;14.70;93.80;;;;;;5093508;28;20208;-66
2023/01/09 01:08:23;;;;;;;2.07;1.87;;;14.70;94.00;;;;;;5093722;28;20249;-66
2023/01/09 01:11:12;;;;;;;2.20;2.00;;;14.70;94.10;;;;;;5093260;28;20740;-64
2023/01/09 01:14:01;;;;;;;2.03;1.93;;;14.90;99.90;;;;;;5093255;28;20681;-66
2023/01/09 01:16:50;;;;;;;2.40;2.07;;;14.70;94.10;;;;;;5093302;28;20200;-65
2023/01/09 01:19:39;;;;;;;2.13;2.03;;;14.70;93.80;;;;;;5092500;28;20226;-65
2023/01/09 01:22:27;;;;;;;3.90;2.27;;;14.70;93.70;;;;;;5093112;28;20228;-65
2023/01/09 01:25:16;;;;;;;3.40;2.83;;;14.70;93.60;;;;;;5093128;28;20223;-64
2023/01/09 01:28:05;;;;;;;3.57;2.50;;;14.70;93.80;;;;;;5093143;28;20200;-65
2023/01/09 01:30:53;;;;;;;2.73;2.53;;;14.60;93.60;;;;;;5092911;28;20545;-66
2023/01/09 01:33:42;;;;;;;2.33;2.10;;;14.00;93.30;;;;;;5092947;28;20196;-65
2023/01/09 01:36:30;;;;;;;2.47;1.90;;;14.60;93.70;;;;;;5092831;28;20577;-66
2023/01/09 01:39:18;;;;;;;2.20;2.10;;;14.70;94.00;;;;;;5091624;28;20261;-66
2023/01/09 01:42:07;;;;;;;2.60;2.33;;;14.70;93.80;;;;;;5092631;28;20479;-65
2023/01/09 01:45:02;;;;;;;2.90;2.57;;;14.70;93.70;;;;;;5091833;28;20785;-66
2023/01/09 01:47:54;;;;;;;3.40;2.47;;;14.70;93.60;;;;;;5092394;28;20724;-64
2023/01/09 01:50:48;;;;;;;2.40;2.10;;;14.70;93.60;;;;;;5092212;28;20834;-63
2023/01/09 01:53:40;;;;;;;2.57;2.37;;;14.70;93.70;;;;;;5093132;28;20283;-63
2023/01/09 01:56:35;;;;;;;2.88;2.47;;;14.70;93.60;;;;;;5092739;28;20230;-67
2023/01/09 01:59:26;;;;;;;2.20;2.10;;;14.70;93.70;;;;;;5092194;28;20281;-65
2023/01/09 02:02:14;;;;;;;3.43;2.53;;;14.70;93.70;;;;;;5092193;28;20261;-64
2023/01/09 02:05:03;;;;;;;2.50;2.30;;;14.70;93.50;;;;;;5092453;28;20295;-63
2023/01/09 02:07:52;;;;;;;2.17;1.90;;;14.70;93.60;;;;;;5092237;28;20245;-65
2023/01/09 02:10:40;;;;;;;2.40;2.20;;;14.70;94.00;;;;;;5091667;28;20475;-65
2023/01/09 02:13:29;;;;;;;3.10;2.80;;;14.70;93.50;;;;;;5092351;28;20273;-66
2023/01/09 02:16:30;;;;;;;2.83;2.60;;;14.70;93.60;;;;;;5092157;28;20284;-66
2023/01/09 02:19:59;;;;;;;2.70;2.50;;;14.70;94.00;;;;;;5091321;28;20203;-64
2023/01/09 02:23:00;;;;;;;1.97;1.80;;;14.70;93.50;;;;;;5091899;28;20203;-66
2023/01/09 02:26:08;;;;;;;3.33;2.57;;;14.60;93.60;;;;;;5092061;28;20247;-65
2023/01/09 02:29:39;;;;;;;2.60;2.37;;;14.60;93.60;;;;;;5091780;28;20276;-64
2023/01/09 02:32:50;;;;;;;2.83;2.10;;;15.20;93.70;;;;;;5091793;28;20278;-65
2023/01/09 02:36:06;;;;;;;2.23;2.03;;;14.60;93.60;;;;;;5091781;28;20763;-64
2023/01/09 02:39:07;;;;;;;3.17;2.87;;;14.60;94.00;;;;;;5086391;28;20683;-66
2023/01/09 02:42:03;;;;;;;2.40;2.20;;;14.70;93.70;;;;;;5088646;28;20207;-65
2023/01/09 02:44:51;;;;;;;2.60;2.40;;;14.70;93.70;;;;;;5092102;28;20224;-66
2023/01/09 02:47:43;;;;;;;3.17;2.77;;;14.60;93.90;;;;;;5091455;28;20853;-66
2023/01/09 02:50:39;;;;;;;2.67;2.47;;;14.70;93.90;;;;;;5089715;28;20798;-66
2023/01/09 02:53:56;;;;;;;2.60;2.40;;;14.60;93.40;;;;;;5090845;28;20282;-66
2023/01/09 02:57:11;;;;;;;2.67;2.47;;;14.70;93.70;;;;;;5090831;28;20848;-66
2023/01/09 03:00:10;;;;;;;3.20;2.90;;;14.60;93.40;;;;;;5090414;28;20342;-66
2023/01/09 03:03:07;;;;;;;3.10;2.80;;;14.60;93.30;;;;;;5091169;28;20602;-66
2023/01/09 03:05:59;;;;;;;2.57;2.37;;;14.60;93.40;;;;;;5090680;28;20273;-66
2023/01/09 03:08:53;;;;;;;3.07;2.47;;;14.50;93.40;;;;;;5090986;28;20278;-63
2023/01/09 03:11:46;;;;;;;2.23;2.00;;;14.80;93.50;;;;;;5091222;28;20241;-65
2023/01/09 03:14:35;;;;;;;2.70;2.20;;;14.60;93.60;;;;;;5090590;28;20482;-66
2023/01/09 03:17:28;;;;;;;3.00;2.70;;;14.70;93.30;;;;;;5090915;28;20317;-65
2023/01/09 03:20:20;;;;;;;2.80;2.30;;;14.70;93.20;;;;;;5089710;28;20196;-66
2023/01/09 03:23:09;;;;;;;2.97;2.70;;;14.60;93.30;;;;;;5089364;28;20224;-64
2023/01/09 03:25:57;;;;;;;2.63;2.43;;;14.70;93.20;;;;;;5090514;28;20215;-64
2023/01/09 03:28:45;;;;;;;3.10;2.80;;;14.70;93.30;;;;;;5090695;28;20810;-65
2023/01/09 03:31:33;;;;;;;4.13;2.63;;;14.70;93.20;;;;;;5090346;28;20627;-65
2023/01/09 03:34:22;;;;;;;3.00;2.55;;;14.70;93.30;;;;;;5090381;28;20708;-65
2023/01/09 03:37:11;;;;;;;3.13;2.70;;;14.80;93.50;;;;;;5089860;28;20321;-66
2023/01/09 03:39:59;;;;;;;2.83;2.53;;;14.60;93.40;;;;;;5090209;28;20297;-66
2023/01/09 03:42:48;;;;;;;3.27;2.57;;;14.70;93.50;;;;;;5091003;28;20287;-66
2023/01/09 03:45:36;;;;;;;2.10;1.90;;;14.70;93.40;;;;;;5089912;28;20269;-66
2023/01/09 03:48:24;;;;;;;3.13;2.70;;;14.70;93.60;;;;;;5090249;28;20641;-65
2023/01/09 03:51:12;;;;;;;2.70;2.40;;;14.70;93.40;;;;;;5090635;28;20261;-66
2023/01/09 03:54:01;;;;;;;3.57;2.97;;;15.10;99.90;;;;;;5088870;28;20242;-65
2023/01/09 03:56:49;;;;;;;2.53;2.33;;;14.60;93.50;;;;;;5090543;28;20326;-66
2023/01/09 03:59:38;;;;;;;3.00;2.53;;;14.70;93.30;;;;;;5090266;28;20296;-66
2023/01/09 04:02:26;;;;;;;3.40;2.90;;;14.60;93.40;;;;;;5090178;28;20197;-65
2023/01/09 04:05:14;;;;;;;3.77;2.37;;;14.60;93.40;;;;;;5090159;28;20244;-66
2023/01/09 04:08:02;;;;;;;3.00;2.80;;;14.60;93.50;;;;;;5092749;28;20602;-65
2023/01/09 04:10:52;;;;;;;2.43;2.23;;;14.70;93.50;;;;;;5092498;28;20235;-65
2023/01/09 04:13:40;;;;;;;2.23;2.03;;;14.60;93.70;;;;;;5093762;28;20231;-65
2023/01/09 04:16:28;;;;;;;2.70;2.50;;;14.70;93.70;;;;;;5093132;28;20249;-66
2023/01/09 04:19:16;;;;;;;2.93;2.60;;;14.60;93.60;;;;;;5094123;28;20214;-65
2023/01/09 04:22:04;;;;;;;2.30;2.10;;;14.60;93.80;;;;;;5093305;28;20241;-65
2023/01/09 04:24:52;;;;;;;2.73;2.10;;;14.60;93.80;;;;;;5093644;28;20252;-65
2023/01/09 04:27:42;;;;;;;2.30;2.10;;;14.70;93.80;;;;;;5093100;28;20255;-65
2023/01/09 04:30:30;;;;;;;3.30;2.20;;;14.80;93.80;;;;;;5093217;28;20277;-64
2023/01/09 04:33:18;;;;;;;2.70;2.40;;;14.70;93.70;;;;;;5092822;28;20241;-65
2023/01/09 04:36:06;;;;;;;2.03;1.92;;;14.70;93.70;;;;;;5092716;28;20635;-62
2023/01/09 04:38:54;;;;;;;2.97;2.67;;;14.80;93.60;;;;;;5096100;28;20669;-66
2023/01/09 04:41:48;;;;;;;3.27;2.70;;;14.80;93.40;;;;;;5114812;28;20683;-66
2023/01/09 04:44:38;;;;;;;2.80;2.20;;;14.70;93.20;;;;;;5114770;28;20238;-65
2023/01/09 04:47:26;;;;;;;3.13;2.60;;;14.80;93.50;;;;;;5114128;28;20228;-66
2023/01/09 04:50:14;;;;;;;4.03;3.20;;;14.80;93.10;;;;;;5112463;28;20278;-64
2023/01/09 04:53:02;;;;;;;3.50;3.17;;;14.90;92.90;;;;;;5113732;28;20720;-66
2023/01/09 04:55:50;;;;;;;3.70;3.40;;;14.90;93.00;;;;;;5095787;28;20224;-66
2023/01/09 04:58:38;;;;;;;3.70;3.03;;;14.90;93.00;;;;;;5093516;28;20196;-65
2023/01/09 05:01:28;;;;;;;5.53;3.30;;;14.90;93.00;;;;;;5092844;28;20274;-65
2023/01/09 05:04:16;;;;;;;3.37;2.93;;;14.80;93.10;;;;;;5093427;28;20714;-66
2023/01/09 05:07:04;;;;;;;3.30;2.83;;;14.80;93.20;;;;;;5093919;28;20648;-67
2023/01/09 05:09:52;;;;;;;3.30;2.70;;;14.80;93.20;;;;;;5093432;28;20319;-66
2023/01/09 05:12:40;;;;;;;3.50;3.20;;;14.80;93.20;;;;;;5093412;28;20277;-65
2023/01/09 05:15:29;;;;;;;2.58;2.38;;;14.90;93.30;;;;;;5093225;28;20229;-64
2023/01/09 05:18:19;;;;;;;4.10;2.70;;;15.00;93.30;;;;;;5092431;28;20487;-65
2023/01/09 05:21:07;;;;;;;2.80;2.60;;;14.80;93.30;;;;;;5092229;28;20749;-66
2023/01/09 05:23:55;;;;;;;3.33;3.03;;;15.10;99.90;;;;;;5093143;28;20196;-65
2023/01/09 05:26:43;;;;;;;3.47;3.17;;;15.00;93.20;;;;;;5092343;28;20203;-66
2023/01/09 05:29:31;;;;;;;3.40;2.97;;;14.80;93.10;;;;;;5092655;28;20299;-66
2023/01/09 05:32:19;;;;;;;4.00;2.93;;;14.90;93.10;;;;;;5092939;28;20681;-66
2023/01/09 05:35:09;;;;;;;3.40;2.80;;;14.80;93.20;;;;;;5092763;28;20719;-66
2023/01/09 05:37:57;;;;;;;3.30;2.97;;;14.80;93.20;;;;;;5092997;28;20200;-65
2023/01/09 05:40:45;;;;;;;3.20;2.90;;;14.70;93.30;;;;;;5092230;28;20208;-66
2023/01/09 05:43:33;;;;;;;3.95;2.42;;;14.80;93.30;;;;;;5092661;28;20283;-64
2023/01/09 05:46:22;;;;;;;2.90;2.60;;;14.70;93.20;;;;;;5092572;28;20677;-66
2023/01/09 05:49:10;;;;;;;3.30;2.80;;;14.70;93.30;;;;;;5092397;28;20220;-64
2023/01/09 05:51:59;;;;;;;2.90;2.70;;;14.60;93.40;;;;;;5092767;28;20660;-66
2023/01/09 05:54:47;;;;;;;3.40;3.10;;;14.70;93.40;;;;;;5092188;28;20222;-63
2023/01/09 05:57:35;;;;;;;3.17;2.90;;;14.70;93.30;;;;;;5092393;28;20300;-67
2023/01/09 06:00:23;;;;;;;3.60;3.30;;;14.60;93.30;;;;;;5092469;28;20695;-65
2023/01/09 06:03:11;;;;;;;3.60;3.28;;;14.60;93.30;;;;;;5092136;28;20206;-65
2023/01/09 06:06:00;;;;;;;3.73;3.20;;;14.60;93.40;;;;;;5092158;28;20235;-66
2023/01/09 06:08:49;;;;;;;5.00;3.20;;;14.60;93.50;;;;;;5092097;28;20212;-64
2023/01/09 06:11:37;;;;;;;3.50;3.20;;;14.70;93.50;;;;;;5092096;28;20203;-63
2023/01/09 06:14:25;;;;;;;2.83;2.53;;;14.70;93.40;;;;;;5091498;28;20641;-66
2023/01/09 06:17:13;;;;;;;5.77;4.50;;;14.60;93.50;;;;;;5092109;28;20329;-63
2023/01/09 06:20:01;;;;;;;3.37;3.07;;;14.60;93.40;;;;;;5091126;28;20246;-66
2023/01/09 06:22:50;;;;;;;3.63;3.30;;;14.70;93.50;;;;;;5092221;28;20330;-66
2023/01/09 06:25:40;;;;;;;4.53;4.13;;;14.70;93.50;;;;;;5091914;28;20226;-65
2023/01/09 06:28:28;;;;;;;4.43;4.03;;;15.40;93.90;;;;;;5091448;28;20309;-66
2023/01/09 06:31:16;;;;;;;8.37;3.10;;;14.70;93.60;;;;;;5091348;28;20614;-66
2023/01/09 06:34:04;;;;;;;3.53;3.23;;;14.40;99.90;;;;;;5091698;28;20200;-66
2023/01/09 06:36:52;;;;;;;3.93;3.53;;;14.50;93.60;;;;;;5091781;28;20664;-64
2023/01/09 06:39:41;;;;;;;4.38;3.05;;;13.90;93.40;;;;;;5091688;28;20196;-67
2023/01/09 06:42:30;;;;;;;3.53;2.95;;;14.50;93.60;;;;;;5091671;28;20691;-65
2023/01/09 06:45:18;;;;;;;3.80;3.10;;;14.50;93.30;;;;;;5102498;23;20286;-61
2023/01/09 06:48:07;;;;;;;3.90;3.37;;;14.70;93.70;;;;;;5072661;28;20259;-61
2023/01/09 06:50:55;;;;;;;3.30;3.00;;;14.60;93.60;;;;;;5071972;28;20649;-61
2023/01/09 06:53:43;;;;;;;5.83;3.20;;;14.50;93.60;;;;;;5072771;28;20485;-61
2023/01/09 06:56:31;;;;;;;3.10;2.80;;;14.60;93.60;;;;;;5053589;28;20720;-61
2023/01/09 06:59:20;;;;;;;3.70;3.40;;;14.40;93.50;;;;;;5053142;28;20294;-61
2023/01/09 07:02:17;;;;;;;4.03;3.20;;;14.60;93.60;;;;;;5052760;28;20359;-61
2023/01/09 07:05:07;;;;;;;4.57;4.03;;;14.70;93.70;;;;;;5053073;28;20582;-62
2023/01/09 07:07:55;;;;;;;3.67;3.37;;;14.50;93.60;;;;;;5052954;28;20195;-61
2023/01/09 07:10:44;;;;;;;4.47;2.63;;;14.50;93.60;;;;;;5051878;28;20225;-61
2023/01/09 07:13:32;;;;;;;3.20;3.00;;;14.50;93.60;;;;;;5053572;28;20328;-61
2023/01/09 07:16:22;;;;;;;3.67;3.00;;;14.60;93.70;;;;;;5052609;28;20221;-61
2023/01/09 07:19:10;;;;;;;4.73;3.17;;;14.50;93.60;;;;;;5049749;28;20197;-61
2023/01/09 07:21:58;;;;;;;3.13;2.70;;;14.60;93.70;;;;;;5053153;28;20255;-61
2023/01/09 07:24:46;;;;;;;4.10;3.00;;;14.50;93.70;;;;;;5046822;28;20261;-61
2023/01/09 07:27:35;;;;;;;3.27;2.97;;;14.60;93.70;;;;;;5052744;28;20197;-61
2023/01/09 07:30:23;;;;;;;3.03;2.70;;;14.60;93.70;;;;;;5058925;28;20704;-62
2023/01/09 07:33:12;;;;;;;3.30;2.40;;;14.60;93.80;;;;;;5072356;28;20246;-61
2023/01/09 07:36:00;;;;;;;3.27;2.97;;;14.60;93.60;;;;;;5064595;28;20828;-64
2023/01/09 07:38:48;;;;;;;8.67;3.97;;;14.60;93.80;;;;;;5052812;28;20205;-63
2023/01/09 07:41:36;;;;;;;3.37;3.07;;;14.60;93.80;;;;;;5040816;28;20229;-63
2023/01/09 07:44:25;;;;;;;17.00;6.03;;;14.80;99.90;;;;;;5056283;28;20302;-63
2023/01/09 07:47:13;;;;;;;7.53;3.63;;;14.60;93.90;;;;;;5054618;28;20201;-63
2023/01/09 07:50:02;;;;;;;4.73;3.23;;;14.60;93.90;;;;;;5055978;28;20294;-62
2023/01/09 07:52:50;;;;;;;5.23;3.70;;;14.70;94.00;;;;;;5065562;28;20205;-63
2023/01/09 07:55:38;;;;;;;5.03;3.20;;;14.70;94.00;;;;;;5056709;28;20225;-62
2023/01/09 07:58:26;;;;;;;3.80;2.90;;;14.70;94.00;;;;;;5054958;28;20197;-62
2023/01/09 08:01:15;;;;;;;3.97;3.30;;;14.60;93.90;;;;;;5051082;28;20651;-62
2023/01/09 08:04:04;;;;;;;4.50;2.90;;;14.70;93.90;;;;;;5051811;28;20201;-62
2023/01/09 08:06:53;;;;;;;4.30;3.30;;;14.70;94.00;;;;;;5056865;28;20229;-62
2023/01/09 08:09:41;;;;;;;11.50;4.00;;;14.90;94.00;;;;;;5054749;28;20225;-62
2023/01/09 08:12:30;;;;;;;6.57;3.90;;;14.70;93.90;;;;;;5055817;28;20436;-62
2023/01/09 08:15:18;;;;;;;3.27;2.97;;;14.70;93.90;;;;;;5055753;28;20225;-63
2023/01/09 08:18:06;;;;;;;3.03;2.63;;;14.80;94.00;;;;;;5056807;28;20208;-63
2023/01/09 08:20:54;;;;;;;4.80;3.20;;;14.70;94.00;;;;;;5064165;28;20263;-62
2023/01/09 08:23:44;;;;;;;3.17;2.90;;;14.70;94.10;;;;;;5056381;28;20209;-63
2023/01/09 08:26:32;;;;;;;9.73;4.03;;;14.70;94.00;;;;;;5055533;28;20716;-63
2023/01/09 08:29:20;;;;;;;26.83;6.93;;;14.80;94.00;;;;;;5065756;28;20201;-63
2023/01/09 08:32:08;;;;;;;16.47;5.50;;;14.70;94.00;;;;;;5075286;28;20228;-63
2023/01/09 08:34:56;;;;;;;7.97;3.70;;;14.70;94.00;;;;;;5066094;28;20335;-63
2023/01/09 08:37:45;;;;;;;7.40;3.73;;;14.70;94.00;;;;;;5041433;28;20288;-63
2023/01/09 08:40:35;;;;;;;4.90;3.00;;;14.70;94.10;;;;;;5047992;28;20420;-63
2023/01/09 08:49:37;;;;;;;3.80;3.03;;;14.70;94.10;;;;;;5035988;28;20289;-63
2023/01/09 08:52:25;;;;;;;5.17;3.37;;;14.70;94.10;;;;;;5035033;28;20735;-63
2023/01/09 08:55:13;;;;;;;4.57;3.73;;;14.70;94.10;;;;;;5034455;28;20316;-63
2023/01/09 08:58:02;;;;;;;8.70;3.47;;;14.70;94.10;;;;;;5036269;28;20226;-62
2023/01/09 09:00:50;;;;;;;5.17;3.80;;;14.70;94.10;;;;;;5044679;28;20272;-62
2023/01/09 09:03:38;;;;;;;7.97;3.30;;;14.70;94.30;;;;;;5035723;28;20312;-63
2023/01/09 09:06:27;;;;;;;5.63;3.47;;;14.70;94.40;;;;;;5048167;28;20221;-62
2023/01/09 09:09:15;;;;;;;5.50;4.00;;;14.90;94.50;;;;;;5054637;28;20225;-63
2023/01/09 09:12:04;;;;;;;14.80;3.47;;;14.80;94.40;;;;;;5053373;28;21013;-62
2023/01/09 09:18:00;;;;;;;4.60;3.27;;;14.70;94.30;;;;;;5054408;28;20435;-63
2023/01/09 09:20:49;;;;;;;7.63;3.50;;;14.80;94.30;;;;;;5053743;28;20204;-63
2023/01/09 09:23:37;;;;;;;4.13;3.10;;;15.00;94.50;;;;;;5054065;28;20959;-62
2023/01/09 09:26:25;;;;;;;3.30;2.83;;;14.80;94.30;;;;;;5047244;28;20275;-63
2023/01/09 09:29:13;;;;;;;5.80;3.27;;;14.80;94.20;;;;;;5049299;28;20189;-62
2023/01/09 09:32:03;;;;;;;6.47;3.60;;;14.90;94.30;;;;;;5048588;28;20189;-63
2023/01/09 09:34:51;;;;;;;4.63;3.33;;;14.90;94.30;;;;;;5055252;28;20275;-62
2023/01/09 09:37:39;;;;;;;3.50;3.20;;;14.90;94.30;;;;;;5052493;28;20243;-62
2023/01/09 09:40:46;;;;;;;6.37;2.90;;;14.90;94.30;;;;;;5052025;28;20674;-62
2023/01/09 09:47:10;;;;;;;7.67;3.17;;;15.00;94.60;;;;;;5053233;28;20209;-62
2023/01/09 09:50:10;;;;;;;5.33;3.43;;;15.20;94.50;;;;;;5045501;28;20743;-63
2023/01/09 09:53:06;;;;;;;14.05;3.80;;;15.50;94.60;;;;;;5049329;28;20247;-62
2023/01/09 09:55:56;;;;;;;4.57;3.07;;;15.60;99.90;;;;;;5045841;28;20267;-62
2023/01/09 09:58:47;;;;;;;6.23;3.17;;;15.60;94.30;;;;;;5046449;28;20888;-63
2023/01/09 10:01:40;;;;;;;3.47;3.08;;;15.80;94.30;;;;;;5046692;28;20226;-62
2023/01/09 10:04:33;;;;;;;3.72;3.33;;;15.90;94.10;;;;;;5056518;28;20228;-63
2023/01/09 10:07:25;;;;;;;6.30;3.33;;;16.10;94.10;;;;;;5071979;28;20281;-63
2023/01/09 10:10:19;;;;;;;3.63;2.50;;;16.40;93.90;;;;;;5060717;28;20859;-62
2023/01/09 10:16:25;;;;;;;3.45;2.92;;;16.70;93.50;;;;;;5057636;28;20220;-63
2023/01/09 10:19:26;;;;;;;3.60;3.30;;;16.90;93.40;;;;;;5073210;28;20585;-64
2023/01/09 10:22:26;;;;;;;5.05;3.17;;;17.10;93.20;;;;;;5074299;28;20271;-63
2023/01/09 10:25:24;;;;;;;4.50;2.95;;;17.20;93.00;;;;;;5073382;28;20223;-63
2023/01/09 10:28:36;;;;;;;4.90;3.10;;;17.40;92.90;;;;;;5056336;28;20224;-62
2023/01/09 10:31:33;;;;;;;5.68;3.13;;;17.50;92.70;;;;;;5045424;28;20209;-63
2023/01/09 10:34:33;;;;;;;3.30;2.90;;;17.70;99.90;;;;;;5051440;28;20280;-63
2023/01/09 10:37:25;;;;;;;3.83;3.53;;;17.70;92.50;;;;;;5052190;28;20201;-63
2023/01/09 10:40:20;;;;;;;3.55;3.03;;;17.70;92.30;;;;;;5051916;28;20212;-63
2023/01/09 10:43:13;;;;;;;2.72;2.50;;;17.80;92.30;;;;;;5051286;28;20217;-63
2023/01/09 10:46:05;;;;;;;4.85;2.90;;;17.90;92.30;;;;;;5052323;28;20314;-63
2023/01/09 10:48:59;;;;;;;3.85;3.05;;;18.10;92.10;;;;;;5051846;28;20282;-63
2023/01/09 10:51:49;;;;;;;6.47;2.65;;;18.10;92.00;;;;;;5052757;28;20294;-63
2023/01/09 10:54:45;;;;;;;2.95;2.67;;;18.80;92.00;;;;;;5032341;28;20226;-63
2023/01/09 10:57:42;;;;;;;3.90;2.67;;;18.20;91.90;;;;;;5031682;28;20671;-63
2023/01/09 11:00:30;;;;;;;9.40;4.03;;;18.30;92.00;;;;;;5049609;28;20209;-62
2023/01/09 11:03:21;;;;;;;9.52;4.13;;;18.30;91.90;;;;;;5050604;28;20225;-63
2023/01/09 11:06:20;;;;;;;4.88;3.50;;;18.40;91.80;;;;;;5050913;28;20217;-63
2023/01/09 11:09:08;;;;;;;3.50;2.60;;;18.40;91.80;;;;;;5051389;28;20201;-63
2023/01/09 11:11:58;;;;;;;3.08;2.78;;;18.50;91.70;;;;;;5052149;28;20217;-62
2023/01/09 11:14:46;;;;;;;3.35;3.05;;;18.20;91.50;;;;;;5050913;28;20307;-63
2023/01/09 11:17:34;;;;;;;5.05;2.92;;;18.60;91.60;;;;;;5054003;28;20673;-63
2023/01/09 11:20:26;;;;;;;3.65;2.50;;;18.50;91.50;;;;;;5055218;28;20614;-63
2023/01/09 11:23:29;;;;;;;3.45;2.60;;;18.70;91.50;;;;;;5056303;28;20241;-63
2023/01/09 11:26:25;;;;;;;4.13;2.70;;;18.60;91.40;;;;;;5055140;28;20225;-63
2023/01/09 11:29:17;;;;;;;2.40;2.25;;;18.50;91.40;;;;;;5055955;28;20251;-63
2023/01/09 11:32:06;;;;;;;2.65;2.20;;;18.60;91.40;;;;;;5056420;28;20220;-64
2023/01/09 11:34:54;;;;;;;4.07;2.50;;;18.50;91.30;;;;;;5054207;28;20227;-64
2023/01/09 11:37:42;;;;;;;4.30;2.50;;;18.50;91.30;;;;;;5052864;28;20205;-64
2023/01/09 11:40:37;;;;;;;5.30;2.53;;;18.90;91.40;;;;;;5053176;28;20250;-64
2023/01/09 11:43:32;;;;;;;4.78;2.30;;;18.70;91.30;;;;;;5053614;28;20205;-63
2023/01/09 11:46:33;;;;;;;4.30;3.05;;;18.60;91.20;;;;;;5053455;28;20234;-64
2023/01/09 11:49:25;;;;;;;3.00;2.65;;;18.70;91.20;;;;;;5053027;28;20232;-63
2023/01/09 11:52:16;;;;;;;3.72;2.15;;;18.70;91.20;;;;;;5060725;28;20690;-64
2023/01/09 11:55:10;;;;;;;2.25;2.05;;;18.60;91.10;;;;;;5055127;28;20305;-64
2023/01/09 11:57:58;;;;;;;2.40;1.80;;;18.70;91.10;;;;;;5055904;28;20327;-65
2023/01/09 12:00:56;;;;;;;2.00;1.80;;;18.70;91.00;;;;;;5055217;28;20804;-64
2023/01/09 12:04:03;;;;;;;2.67;2.38;;;18.70;91.00;;;;;;5054195;28;20209;-64
2023/01/09 12:07:35;;;;;;;2.40;2.20;;;18.80;91.00;;;;;;5055605;28;20236;-64
2023/01/09 12:10:35;;;;;;;2.58;2.22;;;18.80;90.90;;;;;;5040776;28;20652;-64
2023/01/09 12:13:37;;;;;;;3.88;2.08;;;18.90;91.20;;;;;;5054176;28;20258;-64
2023/01/09 12:16:32;;;;;;;2.20;2.00;;;18.90;90.80;;;;;;5055664;28;20294;-65
2023/01/09 12:19:42;;;;;;;4.38;1.95;;;18.90;90.80;;;;;;5053522;28;20558;-64
2023/01/09 12:22:37;;;;;;;4.22;1.95;;;19.00;90.70;;;;;;5052284;28;20579;-64
2023/01/09 12:25:39;;;;;;;2.33;2.13;;;19.00;90.70;;;;;;5051773;28;20217;-64
2023/01/09 12:28:56;;;;;;;4.35;2.53;;;19.00;90.60;;;;;;5053031;28;20311;-63
2023/01/09 12:32:09;;;;;;;2.25;2.05;;;19.10;90.60;;;;;;5055107;28;20288;-64
2023/01/09 12:35:07;;;;;;;3.00;2.33;;;19.00;90.60;;;;;;5054029;28;20638;-64
2023/01/09 12:38:20;;;;;;;2.25;2.05;;;19.10;97.30;;;;;;5054472;28;20339;-64
2023/01/09 12:41:34;;;;;;;4.25;1.95;;;19.00;90.50;;;;;;5054363;28;20213;-63
2023/01/09 12:44:49;;;;;;;2.40;2.20;;;19.20;99.40;;;;;;5052964;28;20201;-63
2023/01/09 12:47:45;;;;;;;3.50;1.92;;;19.00;90.60;;;;;;5055388;28;20229;-64
2023/01/09 12:51:04;;;;;;;1.90;1.80;;;18.90;90.60;;;;;;5053308;28;20205;-64
2023/01/09 12:53:59;;;;;;;4.68;2.38;;;18.90;90.60;;;;;;5068587;28;20204;-63
2023/01/09 12:56:52;;;;;;;5.43;2.15;;;18.80;90.60;;;;;;5074709;28;20193;-64
2023/01/09 12:59:45;;;;;;;2.65;2.45;;;18.90;90.70;;;;;;5073872;28;20250;-63
2023/01/09 13:02:39;;;;;;;1.98;1.88;;;19.70;91.10;;;;;;5061929;28;20800;-63
2023/01/09 13:05:33;;;;;;;3.58;1.95;;;18.90;90.70;;;;;;5054427;28;20300;-64
2023/01/09 13:08:28;;;;;;;1.85;1.60;;;19.00;90.80;;;;;;5054627;28;20288;-64
2023/01/09 13:11:20;;;;;;;4.72;1.80;;;19.00;90.70;;;;;;5053847;28;20250;-64
2023/01/09 13:14:16;;;;;;;3.47;1.70;;;18.00;89.70;;;;;;5053803;28;20197;-64
2023/01/09 13:17:10;;;;;;;1.75;1.65;;;19.20;90.70;;;;;;5053790;28;20197;-63
2023/01/09 13:19:59;;;;;;;3.05;2.13;;;19.20;90.50;;;;;;5053987;28;20685;-64
2023/01/09 13:22:49;;;;;;;2.88;1.95;;;19.20;90.50;;;;;;5053562;28;20200;-63
2023/01/09 13:25:43;;;;;;;3.83;1.55;;;19.30;90.50;;;;;;5053730;28;20228;-64
2023/01/09 13:28:35;;;;;;;1.83;1.67;;;19.30;90.40;;;;;;5053647;28;20602;-64
2023/01/09 13:31:42;;;;;;;1.85;1.70;;;19.30;90.30;;;;;;5058878;28;20224;-64
2023/01/09 13:34:34;;;;;;;4.68;2.20;;;19.30;90.30;;;;;;5073992;28;20219;-63
2023/01/09 13:37:25;;;;;;;2.55;1.70;;;19.30;90.30;;;;;;5072581;28;20208;-63
2023/01/09 13:40:28;;;;;;;1.80;1.63;;;19.30;90.30;;;;;;5072384;28;20649;-63
2023/01/09 13:43:17;;;;;;;1.50;1.35;;;19.30;90.30;;;;;;5065998;28;20197;-66
2023/01/09 13:46:05;;;;;;;1.88;1.33;;;19.30;90.30;;;;;;5073116;28;20266;-64
2023/01/09 13:48:54;;;;;;;2.35;1.45;;;19.30;90.30;;;;;;5073853;28;20204;-64
2023/01/09 13:51:58;;;;;;;3.88;1.90;;;19.30;90.20;;;;;;5074207;28;20189;-64
2023/01/09 13:55:23;;;;;;;2.00;1.70;;;19.30;90.30;;;;;;5033982;28;20268;-64
2023/01/09 13:58:22;;;;;;;2.65;2.00;;;19.30;90.20;;;;;;5033689;28;20261;-64
2023/01/09 14:01:40;;;;;;;1.60;1.50;;;19.20;90.20;;;;;;5033710;28;20209;-64
2023/01/09 14:04:43;;;;;;;2.38;1.55;;;19.20;99.70;;;;;;5033257;28;20202;-64
2023/01/09 14:07:32;;;;;;;2.10;1.95;;;19.20;90.20;;;;;;5049755;28;20204;-64
2023/01/09 14:10:24;;;;;;;1.75;1.58;;;19.30;90.40;;;;;;5048927;28;20615;-63
2023/01/09 14:13:16;;;;;;;2.38;1.52;;;19.20;90.20;;;;;;5032585;28;20228;-63
2023/01/09 14:16:09;;;;;;;1.38;1.25;;;19.30;90.40;;;;;;5033011;28;20336;-63
2023/01/09 14:19:03;;;;;;;1.63;1.52;;;19.30;90.40;;;;;;5035053;28;20202;-63
2023/01/09 14:21:54;;;;;;;1.70;1.20;;;19.30;90.40;;;;;;5050202;28;20200;-64
2023/01/09 14:24:45;;;;;;;1.73;1.40;;;19.40;90.40;;;;;;5051064;28;20220;-64
2023/01/09 14:28:07;;;;;;;3.83;1.20;;;19.40;90.30;;;;;;5050817;28;20208;-63
2023/01/09 14:31:27;;;;;;;1.33;1.23;;;19.50;90.30;;;;;;5050210;28;20689;-64
2023/01/09 14:34:27;;;;;;;1.67;1.50;;;19.40;98.90;;;;;;5051054;28;20213;-64
2023/01/09 14:37:20;;;;;;;3.47;1.50;;;19.50;90.00;;;;;;5051511;28;20201;-64
2023/01/09 14:40:19;;;;;;;2.80;1.70;;;19.60;90.00;;;;;;5052280;28;20670;-64
2023/01/09 14:43:19;;;;;;;1.08;1.02;;;19.50;90.00;;;;;;5050957;28;20201;-64
2023/01/09 14:46:12;;;;;;;1.65;1.23;;;19.50;89.90;;;;;;5051173;28;20236;-63
2023/01/09 14:49:06;;;;;;;1.40;1.30;;;19.40;89.90;;;;;;5051693;28;20209;-63
2023/01/09 14:51:57;;;;;;;4.07;1.60;;;19.40;90.00;;;;;;5050908;28;20231;-63
2023/01/09 14:54:48;;;;;;;1.23;1.10;;;19.30;90.00;;;;;;5039348;28;20359;-62
2023/01/09 14:57:36;;;;;;;2.10;1.50;;;19.30;90.00;;;;;;5050403;28;20198;-65
2023/01/09 15:00:24;;;;;;;1.15;1.05;;;19.30;90.10;;;;;;5051014;28;20247;-63
2023/01/09 15:03:14;;;;;;;1.63;1.30;;;19.30;90.20;;;;;;5050890;28;20220;-63
2023/01/09 15:06:02;;;;;;;1.10;1.00;;;19.30;90.20;;;;;;5051798;28;20684;-64
2023/01/09 15:08:56;;;;;;;3.28;1.27;;;19.30;90.10;;;;;;5050928;28;20275;-65
2023/01/09 15:11:44;;;;;;;1.48;1.38;;;19.40;90.20;;;;;;5058149;28;20595;-65
2023/01/09 15:14:34;;;;;;;1.85;1.52;;;19.50;90.20;;;;;;5072097;28;20226;-65